sensor_id;sensor_type;location;lat;lon;timestamp;P1;durP1;ratioP1;P2;durP2;ratioP2
42110;SDS011;27766;52.174;5.456;2023-03-17T00:01:20;3.50;;;2.47;;
42110;SDS011;27766;52.174;5.456;2023-03-17T00:03:49;3.95;;;2.45;;
42110;SDS011;27766;52.174;5.456;2023-03-17T00:06:18;4.50;;;2.63;;
42110;SDS011;27766;52.174;5.456;2023-03-17T00:08:50;3.67;;;2.67;;
42110;SDS011;27766;52.174;5.456;2023-03-17T00:11:17;3.40;;;2.88;;
42110;SDS011;27766;52.174;5.456;2023-03-17T00:13:44;6.03;;;2.88;;
42110;SDS011;27766;52.174;5.456;2023-03-17T00:16:14;4.78;;;2.63;;
42110;SDS011;27766;52.174;5.456;2023-03-17T00:18:48;3.45;;;2.72;;
42110;SDS011;27766;52.174;5.456;2023-03-17T00:21:20;3.05;;;2.55;;
42110;SDS011;27766;52.174;5.456;2023-03-17T00:23:51;5.00;;;3.20;;
42110;SDS011;27766;52.174;5.456;2023-03-17T00:26:18;4.50;;;3.03;;
42110;SDS011;27766;52.174;5.456;2023-03-17T00:28:46;4.45;;;3.05;;
42110;SDS011;27766;52.174;5.456;2023-03-17T00:31:14;5.22;;;3.20;;
42110;SDS011;27766;52.174;5.456;2023-03-17T00:33:43;5.25;;;2.72;;
42110;SDS011;27766;52.174;5.456;2023-03-17T00:36:16;4.50;;;3.00;;
42110;SDS011;27766;52.174;5.456;2023-03-17T00:38:45;3.80;;;2.80;;
42110;SDS011;27766;52.174;5.456;2023-03-17T00:41:13;8.15;;;2.80;;
42110;SDS011;27766;52.174;5.456;2023-03-17T00:43:40;5.53;;;3.47;;
42110;SDS011;27766;52.174;5.456;2023-03-17T00:48:43;5.05;;;2.60;;
42110;SDS011;27766;52.174;5.456;2023-03-17T00:51:11;4.85;;;2.90;;
42110;SDS011;27766;52.174;5.456;2023-03-17T00:53:38;4.65;;;2.80;;
42110;SDS011;27766;52.174;5.456;2023-03-17T00:56:12;4.07;;;3.22;;
42110;SDS011;27766;52.174;5.456;2023-03-17T00:58:41;5.65;;;3.30;;
42110;SDS011;27766;52.174;5.456;2023-03-17T01:01:09;5.05;;;2.80;;
42110;SDS011;27766;52.174;5.456;2023-03-17T01:03:36;4.65;;;2.70;;
42110;SDS011;27766;52.174;5.456;2023-03-17T01:06:05;4.40;;;2.90;;
42110;SDS011;27766;52.174;5.456;2023-03-17T01:08:36;3.47;;;2.47;;
42110;SDS011;27766;52.174;5.456;2023-03-17T01:11:04;9.55;;;3.00;;
42110;SDS011;27766;52.174;5.456;2023-03-17T01:13:33;3.40;;;2.63;;
42110;SDS011;27766;52.174;5.456;2023-03-17T01:16:00;5.15;;;2.65;;
42110;SDS011;27766;52.174;5.456;2023-03-17T01:18:28;3.17;;;2.22;;
42110;SDS011;27766;52.174;5.456;2023-03-17T01:20:55;5.45;;;3.13;;
42110;SDS011;27766;52.174;5.456;2023-03-17T01:23:22;4.57;;;2.92;;
42110;SDS011;27766;52.174;5.456;2023-03-17T01:25:49;3.67;;;2.88;;
42110;SDS011;27766;52.174;5.456;2023-03-17T01:28:17;3.63;;;2.35;;
42110;SDS011;27766;52.174;5.456;2023-03-17T01:30:45;8.75;;;3.10;;
42110;SDS011;27766;52.174;5.456;2023-03-17T01:33:13;3.35;;;2.60;;
42110;SDS011;27766;52.174;5.456;2023-03-17T01:35:40;6.50;;;2.78;;
42110;SDS011;27766;52.174;5.456;2023-03-17T01:38:09;3.47;;;2.40;;
42110;SDS011;27766;52.174;5.456;2023-03-17T01:40:41;2.92;;;2.28;;
42110;SDS011;27766;52.174;5.456;2023-03-17T01:54:28;3.78;;;2.63;;
42110;SDS011;27766;52.174;5.456;2023-03-17T01:56:58;3.38;;;2.53;;
42110;SDS011;27766;52.174;5.456;2023-03-17T01:59:38;3.55;;;2.30;;
42110;SDS011;27766;52.174;5.456;2023-03-17T02:02:10;3.45;;;2.35;;
42110;SDS011;27766;52.174;5.456;2023-03-17T02:04:40;4.38;;;2.50;;
42110;SDS011;27766;52.174;5.456;2023-03-17T02:07:07;3.65;;;2.45;;
42110;SDS011;27766;52.174;5.456;2023-03-17T02:09:35;4.15;;;2.30;;
42110;SDS011;27766;52.174;5.456;2023-03-17T02:12:03;5.07;;;2.50;;
42110;SDS011;27766;52.174;5.456;2023-03-17T02:14:31;3.17;;;2.45;;
42110;SDS011;27766;52.174;5.456;2023-03-17T02:16:58;6.03;;;2.70;;
42110;SDS011;27766;52.174;5.456;2023-03-17T02:19:25;4.00;;;1.88;;
42110;SDS011;27766;52.174;5.456;2023-03-17T02:21:53;5.47;;;2.30;;
42110;SDS011;27766;52.174;5.456;2023-03-17T02:26:53;4.22;;;2.38;;
42110;SDS011;27766;52.174;5.456;2023-03-17T02:29:23;9.05;;;2.13;;
42110;SDS011;27766;52.174;5.456;2023-03-17T02:31:51;3.45;;;2.03;;
42110;SDS011;27766;52.174;5.456;2023-03-17T02:34:19;3.03;;;2.17;;
42110;SDS011;27766;52.174;5.456;2023-03-17T02:36:46;6.88;;;2.47;;
42110;SDS011;27766;52.174;5.456;2023-03-17T02:39:13;4.22;;;1.90;;
42110;SDS011;27766;52.174;5.456;2023-03-17T02:41:40;3.78;;;2.22;;
42110;SDS011;27766;52.174;5.456;2023-03-17T02:44:08;3.67;;;2.40;;
42110;SDS011;27766;52.174;5.456;2023-03-17T02:46:35;3.00;;;2.22;;
42110;SDS011;27766;52.174;5.456;2023-03-17T02:49:02;2.67;;;2.03;;
42110;SDS011;27766;52.174;5.456;2023-03-17T02:51:30;3.22;;;2.25;;
42110;SDS011;27766;52.174;5.456;2023-03-17T02:53:58;4.43;;;2.17;;
42110;SDS011;27766;52.174;5.456;2023-03-17T02:56:25;3.15;;;2.15;;
42110;SDS011;27766;52.174;5.456;2023-03-17T02:58:52;5.30;;;2.58;;
42110;SDS011;27766;52.174;5.456;2023-03-17T03:01:19;3.13;;;2.17;;
42110;SDS011;27766;52.174;5.456;2023-03-17T03:03:47;3.45;;;2.20;;
42110;SDS011;27766;52.174;5.456;2023-03-17T03:06:15;4.50;;;2.60;;
42110;SDS011;27766;52.174;5.456;2023-03-17T03:08:43;3.22;;;2.17;;
42110;SDS011;27766;52.174;5.456;2023-03-17T03:11:10;2.30;;;2.00;;
42110;SDS011;27766;52.174;5.456;2023-03-17T03:13:37;5.63;;;2.22;;
42110;SDS011;27766;52.174;5.456;2023-03-17T03:16:04;2.25;;;2.05;;
42110;SDS011;27766;52.174;5.456;2023-03-17T03:18:32;4.05;;;1.92;;
42110;SDS011;27766;52.174;5.456;2023-03-17T03:20:59;3.10;;;2.28;;
42110;SDS011;27766;52.174;5.456;2023-03-17T03:23:27;2.17;;;1.85;;
42110;SDS011;27766;52.174;5.456;2023-03-17T03:25:54;4.97;;;2.33;;
42110;SDS011;27766;52.174;5.456;2023-03-17T03:28:21;2.67;;;2.00;;
42110;SDS011;27766;52.174;5.456;2023-03-17T03:30:49;3.15;;;2.03;;
42110;SDS011;27766;52.174;5.456;2023-03-17T03:33:16;2.42;;;2.05;;
42110;SDS011;27766;52.174;5.456;2023-03-17T03:35:43;2.97;;;2.03;;
42110;SDS011;27766;52.174;5.456;2023-03-17T03:38:11;11.27;;;2.30;;
42110;SDS011;27766;52.174;5.456;2023-03-17T03:40:39;3.90;;;2.00;;
42110;SDS011;27766;52.174;5.456;2023-03-17T03:43:06;3.95;;;1.95;;
42110;SDS011;27766;52.174;5.456;2023-03-17T03:45:49;3.85;;;2.15;;
42110;SDS011;27766;52.174;5.456;2023-03-17T03:48:18;2.90;;;2.40;;
42110;SDS011;27766;52.174;5.456;2023-03-17T03:50:45;5.05;;;2.10;;
42110;SDS011;27766;52.174;5.456;2023-03-17T03:53:12;2.42;;;1.48;;
42110;SDS011;27766;52.174;5.456;2023-03-17T03:55:40;3.20;;;1.90;;
42110;SDS011;27766;52.174;5.456;2023-03-17T03:58:07;3.70;;;2.28;;
42110;SDS011;27766;52.174;5.456;2023-03-17T04:00:34;3.90;;;2.22;;
42110;SDS011;27766;52.174;5.456;2023-03-17T04:03:02;4.00;;;2.17;;
42110;SDS011;27766;52.174;5.456;2023-03-17T04:05:30;3.75;;;2.55;;
42110;SDS011;27766;52.174;5.456;2023-03-17T04:07:57;3.10;;;1.67;;
42110;SDS011;27766;52.174;5.456;2023-03-17T04:10:26;3.13;;;1.92;;
42110;SDS011;27766;52.174;5.456;2023-03-17T04:12:53;6.18;;;2.13;;
42110;SDS011;27766;52.174;5.456;2023-03-17T04:15:21;4.05;;;2.22;;
42110;SDS011;27766;52.174;5.456;2023-03-17T04:17:48;4.30;;;2.40;;
42110;SDS011;27766;52.174;5.456;2023-03-17T04:20:16;2.67;;;1.90;;
42110;SDS011;27766;52.174;5.456;2023-03-17T04:22:43;3.10;;;2.10;;
42110;SDS011;27766;52.174;5.456;2023-03-17T04:25:11;2.22;;;1.92;;
42110;SDS011;27766;52.174;5.456;2023-03-17T04:27:40;2.50;;;2.08;;
42110;SDS011;27766;52.174;5.456;2023-03-17T04:30:11;2.80;;;1.83;;
42110;SDS011;27766;52.174;5.456;2023-03-17T04:32:39;4.53;;;2.40;;
42110;SDS011;27766;52.174;5.456;2023-03-17T04:35:10;6.55;;;3.88;;
42110;SDS011;27766;52.174;5.456;2023-03-17T04:37:39;6.65;;;4.28;;
42110;SDS011;27766;52.174;5.456;2023-03-17T04:40:07;4.65;;;2.45;;
42110;SDS011;27766;52.174;5.456;2023-03-17T04:42:38;5.03;;;2.85;;
42110;SDS011;27766;52.174;5.456;2023-03-17T04:45:05;6.40;;;4.00;;
42110;SDS011;27766;52.174;5.456;2023-03-17T04:47:35;7.68;;;1.67;;
42110;SDS011;27766;52.174;5.456;2023-03-17T04:50:03;3.63;;;2.20;;
42110;SDS011;27766;52.174;5.456;2023-03-17T04:52:31;3.67;;;2.60;;
42110;SDS011;27766;52.174;5.456;2023-03-17T04:54:58;5.85;;;1.80;;
42110;SDS011;27766;52.174;5.456;2023-03-17T04:57:25;4.18;;;2.42;;
42110;SDS011;27766;52.174;5.456;2023-03-17T04:59:52;4.03;;;2.20;;
42110;SDS011;27766;52.174;5.456;2023-03-17T05:02:19;3.60;;;2.33;;
42110;SDS011;27766;52.174;5.456;2023-03-17T05:04:46;2.53;;;1.95;;
42110;SDS011;27766;52.174;5.456;2023-03-17T05:07:13;3.28;;;1.73;;
42110;SDS011;27766;52.174;5.456;2023-03-17T05:09:40;3.80;;;2.10;;
42110;SDS011;27766;52.174;5.456;2023-03-17T05:12:08;4.85;;;2.35;;
42110;SDS011;27766;52.174;5.456;2023-03-17T05:14:36;2.25;;;1.75;;
42110;SDS011;27766;52.174;5.456;2023-03-17T05:17:03;2.28;;;1.52;;
42110;SDS011;27766;52.174;5.456;2023-03-17T05:19:30;3.38;;;1.70;;
42110;SDS011;27766;52.174;5.456;2023-03-17T05:21:58;4.20;;;1.80;;
42110;SDS011;27766;52.174;5.456;2023-03-17T05:24:25;5.30;;;2.28;;
42110;SDS011;27766;52.174;5.456;2023-03-17T05:26:52;2.20;;;1.88;;
42110;SDS011;27766;52.174;5.456;2023-03-17T05:29:19;3.22;;;1.52;;
42110;SDS011;27766;52.174;5.456;2023-03-17T05:31:46;7.00;;;2.33;;
42110;SDS011;27766;52.174;5.456;2023-03-17T05:34:14;5.28;;;1.92;;
42110;SDS011;27766;52.174;5.456;2023-03-17T05:36:41;4.13;;;1.80;;
42110;SDS011;27766;52.174;5.456;2023-03-17T05:39:09;2.08;;;1.42;;
42110;SDS011;27766;52.174;5.456;2023-03-17T05:41:38;3.83;;;1.67;;
42110;SDS011;27766;52.174;5.456;2023-03-17T05:44:05;3.65;;;1.90;;
42110;SDS011;27766;52.174;5.456;2023-03-17T05:46:32;3.50;;;1.50;;
42110;SDS011;27766;52.174;5.456;2023-03-17T05:48:59;3.15;;;2.15;;
42110;SDS011;27766;52.174;5.456;2023-03-17T05:51:26;3.50;;;2.17;;
42110;SDS011;27766;52.174;5.456;2023-03-17T05:54:03;2.13;;;1.77;;
42110;SDS011;27766;52.174;5.456;2023-03-17T05:56:30;3.45;;;2.35;;
42110;SDS011;27766;52.174;5.456;2023-03-17T05:58:59;5.93;;;2.53;;
42110;SDS011;27766;52.174;5.456;2023-03-17T06:01:27;4.20;;;2.50;;
42110;SDS011;27766;52.174;5.456;2023-03-17T06:03:56;2.63;;;2.17;;
42110;SDS011;27766;52.174;5.456;2023-03-17T06:06:24;4.25;;;1.98;;
42110;SDS011;27766;52.174;5.456;2023-03-17T06:08:51;4.30;;;2.47;;
42110;SDS011;27766;52.174;5.456;2023-03-17T06:11:19;6.47;;;2.47;;
42110;SDS011;27766;52.174;5.456;2023-03-17T06:13:47;3.00;;;2.08;;
42110;SDS011;27766;52.174;5.456;2023-03-17T06:16:14;3.10;;;2.10;;
42110;SDS011;27766;52.174;5.456;2023-03-17T06:18:42;7.07;;;2.60;;
42110;SDS011;27766;52.174;5.456;2023-03-17T06:21:10;3.15;;;2.08;;
42110;SDS011;27766;52.174;5.456;2023-03-17T06:23:38;2.97;;;2.00;;
42110;SDS011;27766;52.174;5.456;2023-03-17T06:26:05;3.05;;;2.22;;
42110;SDS011;27766;52.174;5.456;2023-03-17T06:28:32;2.30;;;2.00;;
42110;SDS011;27766;52.174;5.456;2023-03-17T06:30:59;4.47;;;1.95;;
42110;SDS011;27766;52.174;5.456;2023-03-17T06:33:27;3.40;;;2.33;;
42110;SDS011;27766;52.174;5.456;2023-03-17T06:35:54;3.97;;;2.03;;
42110;SDS011;27766;52.174;5.456;2023-03-17T06:38:26;3.92;;;1.98;;
42110;SDS011;27766;52.174;5.456;2023-03-17T06:40:54;3.47;;;2.40;;
42110;SDS011;27766;52.174;5.456;2023-03-17T06:43:21;2.67;;;2.15;;
42110;SDS011;27766;52.174;5.456;2023-03-17T06:45:50;4.53;;;2.42;;
42110;SDS011;27766;52.174;5.456;2023-03-17T06:48:18;3.58;;;2.78;;
42110;SDS011;27766;52.174;5.456;2023-03-17T06:50:45;3.33;;;2.35;;
42110;SDS011;27766;52.174;5.456;2023-03-17T06:53:15;5.95;;;2.50;;
42110;SDS011;27766;52.174;5.456;2023-03-17T06:55:43;2.33;;;1.88;;
42110;SDS011;27766;52.174;5.456;2023-03-17T06:58:10;3.78;;;2.38;;
42110;SDS011;27766;52.174;5.456;2023-03-17T07:00:38;2.92;;;2.10;;
42110;SDS011;27766;52.174;5.456;2023-03-17T07:03:06;4.10;;;2.33;;
42110;SDS011;27766;52.174;5.456;2023-03-17T07:05:33;3.65;;;2.15;;
42110;SDS011;27766;52.174;5.456;2023-03-17T07:08:00;4.10;;;2.40;;
42110;SDS011;27766;52.174;5.456;2023-03-17T07:10:27;4.13;;;2.40;;
42110;SDS011;27766;52.174;5.456;2023-03-17T07:12:54;4.78;;;2.83;;
42110;SDS011;27766;52.174;5.456;2023-03-17T07:15:22;4.70;;;2.65;;
42110;SDS011;27766;52.174;5.456;2023-03-17T07:17:52;6.35;;;3.17;;
42110;SDS011;27766;52.174;5.456;2023-03-17T07:20:20;3.10;;;2.22;;
42110;SDS011;27766;52.174;5.456;2023-03-17T07:22:47;4.00;;;2.13;;
42110;SDS011;27766;52.174;5.456;2023-03-17T07:25:14;3.00;;;2.22;;
42110;SDS011;27766;52.174;5.456;2023-03-17T07:27:41;3.70;;;2.58;;
42110;SDS011;27766;52.174;5.456;2023-03-17T07:30:08;2.92;;;2.38;;
42110;SDS011;27766;52.174;5.456;2023-03-17T07:32:36;3.95;;;2.75;;
42110;SDS011;27766;52.174;5.456;2023-03-17T07:35:04;3.55;;;2.58;;
42110;SDS011;27766;52.174;5.456;2023-03-17T07:37:33;4.80;;;2.67;;
42110;SDS011;27766;52.174;5.456;2023-03-17T07:40:00;3.83;;;2.92;;
42110;SDS011;27766;52.174;5.456;2023-03-17T07:42:27;8.68;;;3.95;;
42110;SDS011;27766;52.174;5.456;2023-03-17T07:44:55;5.75;;;4.55;;
42110;SDS011;27766;52.174;5.456;2023-03-17T07:47:22;3.38;;;2.55;;
42110;SDS011;27766;52.174;5.456;2023-03-17T07:49:49;7.47;;;3.15;;
42110;SDS011;27766;52.174;5.456;2023-03-17T07:52:16;10.23;;;5.40;;
42110;SDS011;27766;52.174;5.456;2023-03-17T07:54:44;4.75;;;3.33;;
42110;SDS011;27766;52.174;5.456;2023-03-17T07:57:11;7.57;;;3.10;;
42110;SDS011;27766;52.174;5.456;2023-03-17T07:59:39;4.20;;;3.13;;
42110;SDS011;27766;52.174;5.456;2023-03-17T08:02:10;6.47;;;2.90;;
42110;SDS011;27766;52.174;5.456;2023-03-17T08:04:42;3.45;;;2.70;;
42110;SDS011;27766;52.174;5.456;2023-03-17T08:07:10;3.78;;;2.67;;
42110;SDS011;27766;52.174;5.456;2023-03-17T08:09:38;7.25;;;3.03;;
42110;SDS011;27766;52.174;5.456;2023-03-17T08:12:05;5.22;;;2.22;;
42110;SDS011;27766;52.174;5.456;2023-03-17T08:14:34;13.38;;;2.92;;
42110;SDS011;27766;52.174;5.456;2023-03-17T08:17:01;4.75;;;2.80;;
42110;SDS011;27766;52.174;5.456;2023-03-17T08:19:28;8.15;;;3.00;;
42110;SDS011;27766;52.174;5.456;2023-03-17T08:21:56;3.58;;;2.63;;
42110;SDS011;27766;52.174;5.456;2023-03-17T08:24:23;4.53;;;2.53;;
42110;SDS011;27766;52.174;5.456;2023-03-17T08:26:52;2.92;;;2.60;;
42110;SDS011;27766;52.174;5.456;2023-03-17T08:29:19;7.78;;;2.83;;
42110;SDS011;27766;52.174;5.456;2023-03-17T08:31:46;3.55;;;2.80;;
42110;SDS011;27766;52.174;5.456;2023-03-17T08:34:14;3.95;;;2.38;;
42110;SDS011;27766;52.174;5.456;2023-03-17T08:36:42;9.02;;;2.35;;
42110;SDS011;27766;52.174;5.456;2023-03-17T08:39:09;3.60;;;2.47;;
42110;SDS011;27766;52.174;5.456;2023-03-17T08:41:36;3.70;;;2.58;;
42110;SDS011;27766;52.174;5.456;2023-03-17T08:44:04;6.80;;;2.63;;
42110;SDS011;27766;52.174;5.456;2023-03-17T08:46:31;5.07;;;2.72;;
42110;SDS011;27766;52.174;5.456;2023-03-17T08:48:59;4.00;;;2.90;;
42110;SDS011;27766;52.174;5.456;2023-03-17T08:51:28;4.32;;;2.75;;
42110;SDS011;27766;52.174;5.456;2023-03-17T08:53:59;4.07;;;2.65;;
42110;SDS011;27766;52.174;5.456;2023-03-17T08:56:26;3.67;;;2.72;;
42110;SDS011;27766;52.174;5.456;2023-03-17T08:58:55;5.75;;;3.33;;
42110;SDS011;27766;52.174;5.456;2023-03-17T09:01:22;6.53;;;2.92;;
42110;SDS011;27766;52.174;5.456;2023-03-17T09:03:51;5.38;;;2.78;;
42110;SDS011;27766;52.174;5.456;2023-03-17T09:06:20;5.10;;;2.80;;
42110;SDS011;27766;52.174;5.456;2023-03-17T09:08:49;6.43;;;2.78;;
42110;SDS011;27766;52.174;5.456;2023-03-17T09:11:22;7.60;;;2.88;;
42110;SDS011;27766;52.174;5.456;2023-03-17T09:13:52;6.55;;;3.00;;
42110;SDS011;27766;52.174;5.456;2023-03-17T09:16:20;5.60;;;2.70;;
42110;SDS011;27766;52.174;5.456;2023-03-17T09:18:50;3.85;;;2.60;;
42110;SDS011;27766;52.174;5.456;2023-03-17T09:21:17;4.13;;;2.80;;
42110;SDS011;27766;52.174;5.456;2023-03-17T09:23:44;5.93;;;3.30;;
42110;SDS011;27766;52.174;5.456;2023-03-17T09:26:12;7.32;;;2.88;;
42110;SDS011;27766;52.174;5.456;2023-03-17T09:28:40;4.78;;;2.70;;
42110;SDS011;27766;52.174;5.456;2023-03-17T09:31:07;3.97;;;2.95;;
42110;SDS011;27766;52.174;5.456;2023-03-17T09:33:38;6.93;;;2.83;;
42110;SDS011;27766;52.174;5.456;2023-03-17T09:36:07;4.78;;;2.60;;
42110;SDS011;27766;52.174;5.456;2023-03-17T09:38:36;3.15;;;2.72;;
42110;SDS011;27766;52.174;5.456;2023-03-17T09:48:58;5.70;;;2.50;;
42110;SDS011;27766;52.174;5.456;2023-03-17T09:51:33;5.85;;;2.70;;
42110;SDS011;27766;52.174;5.456;2023-03-17T09:54:12;6.18;;;3.22;;
42110;SDS011;27766;52.174;5.456;2023-03-17T09:56:48;7.88;;;3.22;;
42110;SDS011;27766;52.174;5.456;2023-03-17T09:59:26;6.40;;;3.15;;
42110;SDS011;27766;52.174;5.456;2023-03-17T10:02:17;5.88;;;3.58;;
42110;SDS011;27766;52.174;5.456;2023-03-17T10:04:49;4.35;;;3.10;;
42110;SDS011;27766;52.174;5.456;2023-03-17T10:07:25;6.32;;;3.63;;
42110;SDS011;27766;52.174;5.456;2023-03-17T10:10:10;7.95;;;4.13;;
42110;SDS011;27766;52.174;5.456;2023-03-17T10:15:39;4.05;;;2.72;;
42110;SDS011;27766;52.174;5.456;2023-03-17T10:18:14;6.35;;;3.45;;
42110;SDS011;27766;52.174;5.456;2023-03-17T10:20:45;6.65;;;3.17;;
42110;SDS011;27766;52.174;5.456;2023-03-17T10:23:18;5.63;;;3.70;;
42110;SDS011;27766;52.174;5.456;2023-03-17T10:25:50;7.57;;;2.70;;
42110;SDS011;27766;52.174;5.456;2023-03-17T10:31:20;5.95;;;3.28;;
42110;SDS011;27766;52.174;5.456;2023-03-17T10:33:55;5.50;;;3.67;;
42110;SDS011;27766;52.174;5.456;2023-03-17T10:36:34;6.13;;;3.45;;
42110;SDS011;27766;52.174;5.456;2023-03-17T10:39:04;9.33;;;3.30;;
42110;SDS011;27766;52.174;5.456;2023-03-17T10:41:37;8.15;;;3.60;;
42110;SDS011;27766;52.174;5.456;2023-03-17T10:44:07;8.57;;;3.70;;
42110;SDS011;27766;52.174;5.456;2023-03-17T10:46:36;4.88;;;3.17;;
42110;SDS011;27766;52.174;5.456;2023-03-17T10:49:08;4.10;;;2.90;;
42110;SDS011;27766;52.174;5.456;2023-03-17T10:51:44;6.22;;;3.47;;
42110;SDS011;27766;52.174;5.456;2023-03-17T10:54:15;3.53;;;2.97;;
42110;SDS011;27766;52.174;5.456;2023-03-17T10:56:48;9.23;;;3.42;;
42110;SDS011;27766;52.174;5.456;2023-03-17T10:59:30;8.35;;;3.25;;
42110;SDS011;27766;52.174;5.456;2023-03-17T11:05:19;4.70;;;3.17;;
42110;SDS011;27766;52.174;5.456;2023-03-17T11:07:49;5.05;;;3.33;;
42110;SDS011;27766;52.174;5.456;2023-03-17T11:10:24;3.80;;;3.03;;
42110;SDS011;27766;52.174;5.456;2023-03-17T11:12:59;9.73;;;3.90;;
42110;SDS011;27766;52.174;5.456;2023-03-17T11:15:31;13.57;;;3.35;;
42110;SDS011;27766;52.174;5.456;2023-03-17T11:18:01;7.53;;;3.72;;
42110;SDS011;27766;52.174;5.456;2023-03-17T11:23:41;6.80;;;3.40;;
42110;SDS011;27766;52.174;5.456;2023-03-17T11:37:53;6.55;;;3.85;;
42110;SDS011;27766;52.174;5.456;2023-03-17T11:40:35;7.18;;;3.80;;
42110;SDS011;27766;52.174;5.456;2023-03-17T11:46:33;7.38;;;3.30;;
42110;SDS011;27766;52.174;5.456;2023-03-17T11:56:51;8.25;;;3.90;;
42110;SDS011;27766;52.174;5.456;2023-03-17T12:02:18;6.28;;;3.25;;
42110;SDS011;27766;52.174;5.456;2023-03-17T12:04:53;7.82;;;3.47;;
42110;SDS011;27766;52.174;5.456;2023-03-17T12:07:26;6.75;;;3.42;;
42110;SDS011;27766;52.174;5.456;2023-03-17T12:12:32;6.82;;;3.58;;
42110;SDS011;27766;52.174;5.456;2023-03-17T12:15:06;6.95;;;3.13;;
42110;SDS011;27766;52.174;5.456;2023-03-17T12:17:48;5.32;;;3.13;;
42110;SDS011;27766;52.174;5.456;2023-03-17T12:22:58;5.88;;;3.53;;
42110;SDS011;27766;52.174;5.456;2023-03-17T12:25:33;5.03;;;3.45;;
42110;SDS011;27766;52.174;5.456;2023-03-17T12:33:47;9.27;;;4.38;;
42110;SDS011;27766;52.174;5.456;2023-03-17T12:36:35;6.30;;;3.90;;
42110;SDS011;27766;52.174;5.456;2023-03-17T12:39:07;9.95;;;3.65;;
42110;SDS011;27766;52.174;5.456;2023-03-17T12:44:28;6.15;;;4.00;;
42110;SDS011;27766;52.174;5.456;2023-03-17T12:50:29;9.52;;;3.67;;
42110;SDS011;27766;52.174;5.456;2023-03-17T12:53:15;7.30;;;3.95;;
42110;SDS011;27766;52.174;5.456;2023-03-17T12:55:54;5.93;;;3.75;;
42110;SDS011;27766;52.174;5.456;2023-03-17T12:58:31;6.95;;;4.05;;
42110;SDS011;27766;52.174;5.456;2023-03-17T13:01:10;5.80;;;4.03;;
42110;SDS011;27766;52.174;5.456;2023-03-17T13:06:39;4.70;;;3.50;;
42110;SDS011;27766;52.174;5.456;2023-03-17T13:09:33;5.60;;;3.65;;
42110;SDS011;27766;52.174;5.456;2023-03-17T13:15:01;6.10;;;3.90;;
42110;SDS011;27766;52.174;5.456;2023-03-17T13:17:30;5.45;;;3.95;;
42110;SDS011;27766;52.174;5.456;2023-03-17T13:22:38;7.57;;;4.78;;
42110;SDS011;27766;52.174;5.456;2023-03-17T13:25:34;9.32;;;4.80;;
42110;SDS011;27766;52.174;5.456;2023-03-17T13:28:15;8.00;;;4.07;;
42110;SDS011;27766;52.174;5.456;2023-03-17T13:31:02;5.38;;;3.78;;
42110;SDS011;27766;52.174;5.456;2023-03-17T13:33:32;8.27;;;4.20;;
42110;SDS011;27766;52.174;5.456;2023-03-17T13:36:03;5.60;;;3.78;;
42110;SDS011;27766;52.174;5.456;2023-03-17T13:39:05;8.50;;;4.63;;
42110;SDS011;27766;52.174;5.456;2023-03-17T13:41:51;6.40;;;4.40;;
42110;SDS011;27766;52.174;5.456;2023-03-17T13:44:45;9.50;;;4.72;;
42110;SDS011;27766;52.174;5.456;2023-03-17T13:49:52;6.72;;;4.13;;
42110;SDS011;27766;52.174;5.456;2023-03-17T13:52:25;8.10;;;3.85;;
42110;SDS011;27766;52.174;5.456;2023-03-17T13:55:27;6.78;;;4.15;;
42110;SDS011;27766;52.174;5.456;2023-03-17T13:57:54;5.30;;;4.05;;
42110;SDS011;27766;52.174;5.456;2023-03-17T14:00:44;6.20;;;3.63;;
42110;SDS011;27766;52.174;5.456;2023-03-17T14:05:59;7.72;;;4.53;;
42110;SDS011;27766;52.174;5.456;2023-03-17T14:08:32;5.78;;;4.05;;
42110;SDS011;27766;52.174;5.456;2023-03-17T14:11:25;5.57;;;4.03;;
42110;SDS011;27766;52.174;5.456;2023-03-17T14:16:33;7.63;;;4.15;;
42110;SDS011;27766;52.174;5.456;2023-03-17T14:19:18;6.28;;;4.38;;
42110;SDS011;27766;52.174;5.456;2023-03-17T14:21:47;6.15;;;4.75;;
42110;SDS011;27766;52.174;5.456;2023-03-17T14:26:47;4.10;;;3.67;;
42110;SDS011;27766;52.174;5.456;2023-03-17T14:29:16;5.68;;;4.00;;
42110;SDS011;27766;52.174;5.456;2023-03-17T14:31:48;6.70;;;4.47;;
42110;SDS011;27766;52.174;5.456;2023-03-17T14:34:20;8.38;;;4.38;;
42110;SDS011;27766;52.174;5.456;2023-03-17T14:36:49;7.57;;;4.55;;
42110;SDS011;27766;52.174;5.456;2023-03-17T14:39:24;7.30;;;4.60;;
42110;SDS011;27766;52.174;5.456;2023-03-17T14:42:01;5.32;;;3.88;;
42110;SDS011;27766;52.174;5.456;2023-03-17T14:44:41;7.15;;;4.05;;
42110;SDS011;27766;52.174;5.456;2023-03-17T14:47:27;9.10;;;4.60;;
42110;SDS011;27766;52.174;5.456;2023-03-17T14:49:57;9.60;;;4.88;;
42110;SDS011;27766;52.174;5.456;2023-03-17T14:52:27;6.45;;;4.22;;
42110;SDS011;27766;52.174;5.456;2023-03-17T14:54:59;4.75;;;3.53;;
42110;SDS011;27766;52.174;5.456;2023-03-17T14:57:28;9.63;;;4.55;;
42110;SDS011;27766;52.174;5.456;2023-03-17T15:00:42;6.65;;;4.50;;
42110;SDS011;27766;52.174;5.456;2023-03-17T15:03:00;7.40;;;4.80;;
42110;SDS011;27766;52.174;5.456;2023-03-17T15:05:36;8.95;;;4.57;;
42110;SDS011;27766;52.174;5.456;2023-03-17T15:10:58;8.98;;;4.63;;
42110;SDS011;27766;52.174;5.456;2023-03-17T15:13:27;7.75;;;4.15;;
42110;SDS011;27766;52.174;5.456;2023-03-17T15:16:14;8.05;;;4.22;;
42110;SDS011;27766;52.174;5.456;2023-03-17T15:18:43;9.27;;;4.38;;
42110;SDS011;27766;52.174;5.456;2023-03-17T15:21:21;5.85;;;3.58;;
42110;SDS011;27766;52.174;5.456;2023-03-17T15:24:02;8.70;;;4.55;;
42110;SDS011;27766;52.174;5.456;2023-03-17T15:26:45;9.85;;;5.03;;
42110;SDS011;27766;52.174;5.456;2023-03-17T15:29:12;10.20;;;4.57;;
42110;SDS011;27766;52.174;5.456;2023-03-17T15:31:39;8.30;;;4.20;;
42110;SDS011;27766;52.174;5.456;2023-03-17T15:34:09;5.50;;;4.50;;
42110;SDS011;27766;52.174;5.456;2023-03-17T15:36:39;4.53;;;3.28;;
42110;SDS011;27766;52.174;5.456;2023-03-17T15:39:09;5.70;;;3.75;;
42110;SDS011;27766;52.174;5.456;2023-03-17T15:41:36;6.63;;;4.43;;
42110;SDS011;27766;52.174;5.456;2023-03-17T15:44:03;5.32;;;3.92;;
42110;SDS011;27766;52.174;5.456;2023-03-17T15:46:31;5.82;;;3.75;;
42110;SDS011;27766;52.174;5.456;2023-03-17T15:48:59;7.47;;;4.07;;
42110;SDS011;27766;52.174;5.456;2023-03-17T15:51:26;5.78;;;4.22;;
42110;SDS011;27766;52.174;5.456;2023-03-17T15:53:53;7.00;;;4.10;;
42110;SDS011;27766;52.174;5.456;2023-03-17T15:56:20;6.97;;;4.30;;
42110;SDS011;27766;52.174;5.456;2023-03-17T15:58:48;6.57;;;4.28;;
42110;SDS011;27766;52.174;5.456;2023-03-17T16:01:18;5.55;;;4.05;;
42110;SDS011;27766;52.174;5.456;2023-03-17T16:03:46;6.00;;;3.80;;
42110;SDS011;27766;52.174;5.456;2023-03-17T16:06:15;6.80;;;3.92;;
42110;SDS011;27766;52.174;5.456;2023-03-17T16:08:44;5.40;;;4.18;;
42110;SDS011;27766;52.174;5.456;2023-03-17T16:11:19;7.32;;;4.72;;
42110;SDS011;27766;52.174;5.456;2023-03-17T16:13:54;6.13;;;4.10;;
42110;SDS011;27766;52.174;5.456;2023-03-17T16:16:25;7.15;;;5.05;;
42110;SDS011;27766;52.174;5.456;2023-03-17T16:18:54;7.37;;;4.53;;
42110;SDS011;27766;52.174;5.456;2023-03-17T16:21:23;8.10;;;5.00;;
42110;SDS011;27766;52.174;5.456;2023-03-17T16:23:51;6.43;;;4.40;;
42110;SDS011;27766;52.174;5.456;2023-03-17T16:26:18;6.68;;;4.70;;
42110;SDS011;27766;52.174;5.456;2023-03-17T16:28:45;8.23;;;5.78;;
42110;SDS011;27766;52.174;5.456;2023-03-17T16:31:23;9.18;;;6.07;;
42110;SDS011;27766;52.174;5.456;2023-03-17T16:33:52;6.93;;;5.25;;
42110;SDS011;27766;52.174;5.456;2023-03-17T16:36:20;8.57;;;4.78;;
42110;SDS011;27766;52.174;5.456;2023-03-17T16:38:49;12.73;;;6.50;;
42110;SDS011;27766;52.174;5.456;2023-03-17T16:41:25;11.95;;;6.30;;
42110;SDS011;27766;52.174;5.456;2023-03-17T16:44:00;13.73;;;6.10;;
42110;SDS011;27766;52.174;5.456;2023-03-17T16:46:30;12.25;;;7.70;;
42110;SDS011;27766;52.174;5.456;2023-03-17T16:49:01;9.02;;;6.15;;